Time;durP1;ratioP1;P1;durP2;ratioP2;P2;SDS_P1;SDS_P2;PMS_P1;PMS_P2;Temp;Humidity;BMP_temperature;BMP_pressure;BME280_temperature;BME280_humidity;BME280_pressure;Samples;Min_cycle;Max_cycle;Signal;HPM_P1;HPM_P2
2022/01/24 00:02:04;;;;;;;6.43;2.80;;;28.50;61.90;;;;;;4998142;28;20390;-64
2022/01/24 00:04:31;;;;;;;10.45;3.25;;;28.50;62.00;;;;;;5002030;28;20064;-65
2022/01/24 00:06:57;;;;;;;10.48;3.78;;;28.50;61.90;;;;;;4998955;28;20026;-64
2022/01/24 00:09:24;;;;;;;6.13;2.78;;;28.50;61.90;;;;;;5000461;28;20488;-65
2022/01/24 00:17:12;;;;;;;10.10;2.88;;;28.50;61.80;;;;;;4999270;28;20108;-63
2022/01/24 00:27:54;;;;;;;10.07;4.10;;;28.40;61.60;;;;;;5001119;28;20105;-64
2022/01/24 00:30:21;;;;;;;7.43;2.70;;;28.40;61.60;;;;;;5000703;28;20026;-64
2022/01/24 00:32:47;;;;;;;7.07;3.42;;;28.40;61.60;;;;;;4999962;28;20022;-65
2022/01/24 00:35:14;;;;;;;5.80;3.03;;;28.40;61.70;;;;;;4995998;28;20018;-63
2022/01/24 00:37:41;;;;;;;7.63;2.92;;;28.40;61.70;;;;;;5000135;28;20022;-64
2022/01/24 00:40:08;;;;;;;7.40;3.45;;;28.40;61.70;;;;;;5000546;28;20044;-66
2022/01/24 00:45:55;;;;;;;5.30;2.65;;;28.40;61.90;;;;;;4998796;28;20026;-74
2022/01/24 00:55:37;;;;;;;2.97;1.80;;;28.40;62.70;;;;;;4999070;28;20097;-66
2022/01/24 00:58:03;;;;;;;8.18;2.92;;;28.30;63.00;;;;;;4997765;28;20026;-66
2022/01/24 01:00:30;;;;;;;7.03;2.47;;;28.30;63.40;;;;;;4999978;28;20364;-68
2022/01/24 01:02:56;;;;;;;5.00;2.33;;;28.30;63.70;;;;;;4995010;28;20724;-68
2022/01/24 01:18:49;;;;;;;5.40;1.98;;;28.20;64.10;;;;;;4999633;28;20116;-65
2022/01/24 01:21:17;;;;;;;4.75;2.20;;;28.20;64.30;;;;;;4995801;28;20075;-66
2022/01/24 01:23:50;;;;;;;6.30;2.17;;;28.10;64.20;;;;;;5001441;28;20106;-64
2022/01/24 01:27:04;;;;;;;6.20;2.20;;;28.20;64.40;;;;;;4999626;28;20028;-69
2022/01/24 01:29:13;;;;;;;8.43;1.98;;;28.10;64.30;;;;;;4991196;28;20032;-70
2022/01/24 01:53:49;;;;;;;9.30;3.08;;;28.00;65.40;;;;;;5000184;28;19936;-71
2022/01/24 01:56:13;;;;;;;5.65;2.80;;;28.00;65.40;;;;;;4999444;28;20026;-68
2022/01/24 01:58:40;;;;;;;9.27;2.60;;;28.00;65.50;;;;;;4996654;28;20065;-66
2022/01/24 02:01:06;;;;;;;4.05;1.98;;;28.00;65.40;;;;;;4998223;28;20573;-66
2022/01/24 02:03:33;;;;;;;5.63;2.30;;;28.00;65.40;;;;;;4998378;28;20046;-64
2022/01/24 02:06:00;;;;;;;4.38;1.65;;;28.00;65.50;;;;;;4999154;28;20017;-73
2022/01/24 02:08:28;;;;;;;2.95;1.70;;;27.90;65.60;;;;;;4997150;28;20520;-70
2022/01/24 02:10:56;;;;;;;4.15;1.90;;;27.90;65.60;;;;;;4999342;28;20013;-69
2022/01/24 02:13:24;;;;;;;4.90;2.08;;;27.90;65.70;;;;;;4998834;28;20037;-63
2022/01/24 02:21:25;;;;;;;3.53;1.67;;;27.90;65.80;;;;;;4998569;28;20034;-71
2022/01/24 02:23:56;;;;;;;5.17;1.60;;;27.80;65.60;;;;;;4995861;28;20061;-65
2022/01/24 02:26:23;;;;;;;7.20;2.28;;;27.90;65.70;;;;;;4998907;28;20267;-65
2022/01/24 02:33:52;;;;;;;6.03;2.45;;;27.90;65.70;;;;;;5002046;28;20026;-71
2022/01/24 02:36:27;;;;;;;8.23;2.25;;;27.80;65.70;;;;;;5001774;28;20133;-65
2022/01/24 02:49:34;;;;;;;3.30;2.30;;;27.80;65.60;;;;;;5001604;28;20029;-67
2022/01/24 02:52:14;;;;;;;3.20;2.00;;;27.70;65.60;;;;;;4998536;28;20080;-65
2022/01/24 02:54:41;;;;;;;5.43;2.10;;;27.80;65.70;;;;;;4998804;28;20040;-66
2022/01/24 02:57:09;;;;;;;6.85;2.58;;;27.80;65.70;;;;;;5003072;28;20054;-65
2022/01/24 02:59:37;;;;;;;6.90;2.20;;;27.70;65.70;;;;;;5001075;28;20022;-64
2022/01/24 03:02:04;;;;;;;4.78;2.30;;;27.70;65.70;;;;;;5004072;28;20110;-71
2022/01/24 03:04:31;;;;;;;12.93;3.20;;;27.70;65.80;;;;;;5000262;28;20493;-66
2022/01/24 03:06:58;;;;;;;9.02;3.05;;;27.70;65.80;;;;;;5000893;28;20026;-63
2022/01/24 03:09:24;;;;;;;11.45;3.15;;;27.70;65.80;;;;;;5002575;28;20018;-73
2022/01/24 03:14:26;;;;;;;16.58;2.53;;;27.70;65.70;;;;;;4998759;28;20397;-67
2022/01/24 03:16:53;;;;;;;8.40;2.15;;;27.60;65.80;;;;;;5001319;28;20030;-65
2022/01/24 03:19:20;;;;;;;28.35;3.38;;;27.60;65.90;;;;;;5001610;28;20093;-63
2022/01/24 03:21:47;;;;;;;23.63;3.42;;;27.60;65.90;;;;;;5001758;28;20101;-63
2022/01/24 03:24:15;;;;;;;14.48;3.08;;;27.60;65.80;;;;;;5000928;28;20484;-63
2022/01/24 03:26:42;;;;;;;11.25;2.13;;;27.60;65.70;;;;;;5001030;28;20492;-76
2022/01/24 03:29:09;;;;;;;9.60;2.47;;;27.60;65.70;;;;;;5001965;28;20033;-65
2022/01/24 03:31:37;;;;;;;21.45;3.50;;;27.60;65.70;;;;;;5001089;28;20041;-71
2022/01/24 03:34:04;;;;;;;37.67;4.35;;;27.50;65.70;;;;;;5000266;28;20480;-64
2022/01/24 03:36:30;;;;;;;20.42;4.05;;;27.50;65.80;;;;;;5002304;28;20029;-64
2022/01/24 03:38:57;;;;;;;31.27;4.70;;;27.50;65.90;;;;;;4996911;28;20017;-64
2022/01/24 03:41:24;;;;;;;22.05;3.15;;;27.50;66.00;;;;;;5001460;28;20096;-69
2022/01/24 03:43:50;;;;;;;18.23;2.80;;;27.50;66.20;;;;;;5001731;28;20489;-66
2022/01/24 03:48:55;;;;;;;14.23;2.88;;;27.50;66.40;;;;;;5002020;28;20025;-76
2022/01/24 03:51:24;;;;;;;16.15;2.40;;;27.50;66.50;;;;;;4999458;28;20045;-67
2022/01/24 03:53:51;;;;;;;8.15;1.52;;;27.50;66.50;;;;;;5001089;28;20030;-66
2022/01/24 03:56:18;;;;;;;3.92;1.83;;;27.50;66.60;;;;;;5000824;28;20018;-67
2022/01/24 03:58:45;;;;;;;3.05;1.52;;;27.40;66.50;;;;;;5002845;28;20062;-69
2022/01/24 04:01:52;;;;;;;2.55;1.13;;;27.40;66.50;;;;;;4998267;28;20042;-75
2022/01/24 04:04:58;;;;;;;9.93;2.00;;;27.40;66.60;;;;;;4997426;28;20077;-76
2022/01/24 04:07:24;;;;;;;69.43;61.97;;;27.40;67.50;;;;;;4999821;28;20014;-65
2022/01/24 04:09:51;;;;;;;64.43;44.17;;;27.20;68.00;;;;;;5001420;28;20041;-71
2022/01/24 04:12:20;;;;;;;37.40;27.13;;;27.00;68.60;;;;;;4999349;28;20030;-66
2022/01/24 04:17:43;;;;;;;36.17;11.60;;;27.00;68.80;;;;;;4985090;28;20112;-77
2022/01/24 04:22:58;;;;;;;20.52;5.88;;;27.10;68.60;;;;;;4996307;28;20104;-66
2022/01/24 04:25:25;;;;;;;29.05;4.28;;;27.10;68.40;;;;;;4989844;28;20018;-76
2022/01/24 04:27:54;;;;;;;16.60;2.15;;;27.10;68.30;;;;;;4986842;28;20100;-67
2022/01/24 04:30:22;;;;;;;13.88;2.55;;;27.20;68.20;;;;;;4984676;28;20061;-72
2022/01/24 04:32:49;;;;;;;21.50;2.15;;;27.20;68.10;;;;;;4990666;28;20098;-68
2022/01/24 04:35:16;;;;;;;22.20;4.75;;;27.30;68.00;;;;;;4988140;28;20445;-73
2022/01/24 04:37:42;;;;;;;20.08;7.40;;;27.30;67.90;;;;;;4990757;28;20133;-73
2022/01/24 04:40:09;;;;;;;11.68;5.93;;;27.30;68.60;;;;;;4990431;28;20122;-67
2022/01/24 04:42:45;;;;;;;7.75;4.28;;;27.30;68.00;;;;;;4990483;28;21553;-72
2022/01/24 04:45:34;;;;;;;8.90;4.07;;;27.30;68.00;;;;;;5014257;28;20121;-69
2022/01/24 04:51:12;;;;;;;4.03;1.67;;;27.30;67.80;;;;;;4998930;28;20064;-70
2022/01/24 04:56:05;;;;;;;11.32;1.90;;;27.30;67.60;;;;;;4997102;28;20084;-73
2022/01/24 04:58:31;;;;;;;11.50;1.80;;;27.30;67.70;;;;;;5001604;28;20034;-71
2022/01/24 05:00:58;;;;;;;17.27;2.75;;;27.30;67.80;;;;;;4995299;28;20114;-69
2022/01/24 05:03:24;;;;;;;18.55;2.70;;;27.30;68.10;;;;;;5004364;28;20466;-78
2022/01/24 05:05:53;;;;;;;19.85;3.10;;;27.30;68.20;;;;;;4997262;28;21262;-65
2022/01/24 05:08:19;;;;;;;9.52;2.38;;;27.30;68.20;;;;;;4997666;28;20142;-75
2022/01/24 05:24:38;;;;;;;12.32;3.10;;;27.20;68.40;;;;;;5004053;28;20032;-64
2022/01/24 05:27:05;;;;;;;6.53;2.28;;;27.20;68.50;;;;;;4998957;28;20470;-69
2022/01/24 05:29:32;;;;;;;7.63;2.65;;;27.20;68.80;;;;;;4996783;28;20461;-64
2022/01/24 05:31:58;;;;;;;8.93;2.97;;;27.20;68.80;;;;;;4995870;28;20047;-68
2022/01/24 05:34:25;;;;;;;13.25;2.92;;;27.30;68.80;;;;;;4999939;28;20100;-68
2022/01/24 05:36:52;;;;;;;20.08;3.63;;;27.20;68.70;;;;;;5002273;28;20389;-68
2022/01/24 05:39:18;;;;;;;13.60;3.60;;;27.20;68.80;;;;;;4999430;28;20023;-64
2022/01/24 05:41:45;;;;;;;14.90;2.75;;;27.20;68.80;;;;;;4996050;28;20014;-64
2022/01/24 05:44:11;;;;;;;8.27;3.20;;;27.20;68.70;;;;;;4999318;28;20061;-64
2022/01/24 05:46:38;;;;;;;8.68;2.63;;;27.20;68.70;;;;;;5000525;28;20018;-64
2022/01/24 05:49:04;;;;;;;5.07;2.92;;;27.20;68.60;;;;;;5001827;28;20049;-73
2022/01/24 05:51:31;;;;;;;9.10;3.15;;;27.30;68.70;;;;;;5000706;28;20043;-64
2022/01/24 05:53:58;;;;;;;6.85;2.20;;;27.30;68.60;;;;;;4999167;28;20481;-64
2022/01/24 05:56:25;;;;;;;7.80;2.95;;;27.30;68.60;;;;;;5000404;28;20027;-63
2022/01/24 05:59:31;;;;;;;9.52;3.17;;;27.30;68.60;;;;;;5002864;28;20018;-64
2022/01/24 06:02:37;;;;;;;7.43;2.95;;;27.30;68.40;;;;;;4999080;28;20073;-65
2022/01/24 06:05:43;;;;;;;8.85;3.45;;;27.40;68.40;;;;;;4992156;28;20064;-67
2022/01/24 06:08:49;;;;;;;12.45;4.45;;;27.40;68.20;;;;;;5001229;28;20109;-73
2022/01/24 06:11:55;;;;;;;9.32;2.83;;;27.50;68.20;;;;;;4999013;28;20031;-66
2022/01/24 06:15:01;;;;;;;16.45;5.93;;;27.50;68.00;;;;;;5004710;28;20164;-72
2022/01/24 06:18:07;;;;;;;10.45;2.75;;;27.60;68.10;;;;;;4998085;28;21253;-66
2022/01/24 06:21:13;;;;;;;11.55;3.47;;;27.60;67.90;;;;;;5004497;28;20018;-70
2022/01/24 06:24:19;;;;;;;6.47;2.95;;;27.60;67.80;;;;;;5001149;28;20030;-70
2022/01/24 06:27:25;;;;;;;7.85;2.78;;;27.70;67.80;;;;;;4997587;28;20030;-69
2022/01/24 06:30:31;;;;;;;14.48;3.35;;;27.70;67.60;;;;;;5002361;28;20412;-78
2022/01/24 06:33:37;;;;;;;12.73;4.25;;;27.70;67.50;;;;;;4999390;28;20458;-72
2022/01/24 06:36:44;;;;;;;13.40;4.05;;;27.70;67.40;;;;;;5000900;28;20042;-73
2022/01/24 06:39:50;;;;;;;20.00;3.88;;;27.70;67.30;;;;;;4997035;28;20058;-74
2022/01/24 06:42:56;;;;;;;19.67;3.72;;;27.80;67.40;;;;;;4999056;28;20102;-73
2022/01/24 06:46:02;;;;;;;12.57;3.95;;;27.80;67.30;;;;;;5002594;28;20053;-72
2022/01/24 06:49:09;;;;;;;13.82;3.97;;;27.80;67.20;;;;;;4998298;28;20046;-68
2022/01/24 06:52:15;;;;;;;9.70;3.20;;;27.80;67.00;;;;;;5034261;28;21692;-66
2022/01/24 06:55:21;;;;;;;10.00;3.60;;;27.80;66.80;;;;;;4997943;28;20476;-67
2022/01/24 06:58:28;;;;;;;12.57;4.10;;;27.90;66.70;;;;;;5000022;28;20030;-70
2022/01/24 07:01:34;;;;;;;12.68;3.63;;;27.80;66.40;;;;;;4999121;28;20427;-78
2022/01/24 07:04:41;;;;;;;16.90;4.45;;;27.90;66.20;;;;;;4998523;28;20085;-76
2022/01/24 07:07:47;;;;;;;11.30;4.20;;;27.90;66.00;;;;;;5000185;28;20104;-73
2022/01/24 07:10:53;;;;;;;15.52;3.58;;;27.90;65.80;;;;;;4997117;28;20077;-72
2022/01/24 07:14:00;;;;;;;14.90;4.32;;;27.90;65.60;;;;;;5002062;28;20539;-73
2022/01/24 07:20:05;;;;;;;28.85;6.50;;;28.00;65.30;;;;;;5028052;28;20552;-64
2022/01/24 07:23:11;;;;;;;23.17;4.93;;;28.00;65.30;;;;;;5000169;28;20054;-64
2022/01/24 07:26:17;;;;;;;27.00;5.25;;;28.00;65.40;;;;;;5005489;28;20014;-70
2022/01/24 07:29:03;;;;;;;20.92;4.57;;;28.10;65.50;;;;;;5001247;28;20044;-76
2022/01/24 07:31:30;;;;;;;21.60;4.85;;;28.10;65.50;;;;;;4999057;28;20104;-64
2022/01/24 07:33:57;;;;;;;21.48;4.50;;;28.20;65.80;;;;;;5005527;28;20022;-71
2022/01/24 07:36:27;;;;;;;19.33;4.65;;;28.20;65.90;;;;;;5003440;28;20048;-72
2022/01/24 07:38:54;;;;;;;16.80;4.85;;;28.20;66.00;;;;;;5000027;28;20057;-69
2022/01/24 07:41:27;;;;;;;13.88;4.40;;;28.20;65.90;;;;;;5002609;28;20072;-72
2022/01/24 07:43:54;;;;;;;16.40;4.45;;;28.20;65.70;;;;;;5005756;28;20014;-70
2022/01/24 07:46:21;;;;;;;10.68;4.32;;;28.20;65.50;;;;;;5002542;28;20033;-70
2022/01/24 07:48:47;;;;;;;14.07;4.43;;;28.30;65.40;;;;;;5001068;28;20127;-71
2022/01/24 07:51:17;;;;;;;9.27;3.53;;;28.30;65.40;;;;;;5002261;28;20018;-73
2022/01/24 07:53:45;;;;;;;11.15;3.75;;;28.20;65.20;;;;;;5006339;28;20030;-69
2022/01/24 07:56:12;;;;;;;13.60;3.95;;;28.20;65.10;;;;;;4999059;28;20392;-77
2022/01/24 07:58:41;;;;;;;13.63;4.03;;;28.20;65.10;;;;;;4999487;28;20130;-78
2022/01/24 08:01:48;;;;;;;13.02;3.67;;;28.20;65.10;;;;;;5004668;28;20046;-77
2022/01/24 08:04:54;;;;;;;14.30;4.07;;;28.30;65.10;;;;;;5000825;28;20072;-67
2022/01/24 08:08:16;;;;;;;10.20;3.17;;;28.30;65.10;;;;;;5002658;28;20079;-76
2022/01/24 08:11:22;;;;;;;11.93;3.75;;;28.30;65.00;;;;;;5001824;28;20022;-78
2022/01/24 08:14:28;;;;;;;14.10;4.78;;;28.40;64.90;;;;;;5001011;28;20556;-74
2022/01/24 08:17:34;;;;;;;14.60;4.15;;;28.40;64.70;;;;;;4999919;28;20049;-67
2022/01/24 08:20:01;;;;;;;13.25;3.55;;;28.50;64.60;;;;;;5001596;28;20436;-75
2022/01/24 08:22:27;;;;;;;16.13;3.55;;;28.50;64.40;;;;;;4999561;28;20424;-65
2022/01/24 08:24:53;;;;;;;22.20;5.57;;;28.50;64.10;;;;;;5003395;28;20025;-68
2022/01/24 08:27:20;;;;;;;19.08;4.47;;;28.50;64.00;;;;;;5001340;28;20441;-76
2022/01/24 08:29:49;;;;;;;20.05;4.07;;;28.50;64.00;;;;;;5002698;28;20413;-70
2022/01/24 08:32:16;;;;;;;14.45;5.10;;;28.50;63.70;;;;;;5002183;28;20033;-76
2022/01/24 08:34:43;;;;;;;15.82;3.85;;;28.50;63.50;;;;;;5005979;28;20014;-65
2022/01/24 08:37:09;;;;;;;12.40;3.58;;;28.60;63.30;;;;;;4996832;28;20037;-77
2022/01/24 08:39:36;;;;;;;17.40;4.43;;;28.60;63.00;;;;;;5002031;28;20111;-70
2022/01/24 08:42:28;;;;;;;14.10;3.55;;;28.60;62.50;;;;;;5002190;28;20018;-75
2022/01/24 08:47:29;;;;;;;13.82;3.03;;;28.60;61.60;;;;;;5001288;28;20146;-65
2022/01/24 08:49:58;;;;;;;10.95;2.72;;;28.70;61.30;;;;;;5000693;28;20029;-70
2022/01/24 08:52:28;;;;;;;9.43;4.50;;;28.70;60.90;;;;;;5006411;28;20049;-78
2022/01/24 08:54:55;;;;;;;12.45;3.03;;;28.70;60.80;;;;;;5001075;28;20029;-66
2022/01/24 08:57:25;;;;;;;5.93;2.63;;;28.70;60.70;;;;;;5001066;28;20779;-65
2022/01/24 08:59:55;;;;;;;9.75;2.65;;;28.80;60.60;;;;;;5000380;28;20018;-73
2022/01/24 09:02:22;;;;;;;12.10;2.83;;;28.80;60.50;;;;;;5000760;28;20153;-65
2022/01/24 09:04:50;;;;;;;11.13;2.75;;;28.80;60.10;;;;;;4997637;28;20064;-68
2022/01/24 09:07:19;;;;;;;13.00;3.67;;;28.90;60.10;;;;;;5004859;28;20064;-67
2022/01/24 09:09:46;;;;;;;10.18;3.25;;;28.90;60.10;;;;;;5000703;28;20079;-65
2022/01/24 09:12:13;;;;;;;12.00;3.55;;;29.00;59.90;;;;;;5000181;28;20030;-64
2022/01/24 09:14:44;;;;;;;7.97;2.63;;;29.00;60.10;;;;;;4999457;28;20014;-77
2022/01/24 09:17:14;;;;;;;10.93;3.10;;;29.00;60.20;;;;;;4999675;28;20481;-70
2022/01/24 09:19:40;;;;;;;19.02;3.78;;;29.10;60.10;;;;;;4997061;28;20035;-68
2022/01/24 09:22:07;;;;;;;21.60;3.63;;;29.10;60.00;;;;;;4999913;28;20501;-72
2022/01/24 09:24:34;;;;;;;16.70;3.50;;;29.10;60.40;;;;;;5000984;28;20026;-68
2022/01/24 09:27:01;;;;;;;23.35;3.97;;;29.20;60.90;;;;;;5004489;28;20026;-77
2022/01/24 09:29:28;;;;;;;12.82;3.05;;;29.20;61.10;;;;;;5001778;28;20078;-67
2022/01/24 09:31:56;;;;;;;25.50;4.75;;;29.20;61.30;;;;;;5001681;28;20557;-68
2022/01/24 09:34:22;;;;;;;14.60;3.50;;;29.20;61.30;;;;;;5000275;28;20513;-68
2022/01/24 09:36:50;;;;;;;16.90;3.63;;;29.30;61.40;;;;;;5000885;28;20050;-64
2022/01/24 09:39:18;;;;;;;29.23;5.55;;;29.30;61.10;;;;;;4998687;28;20155;-65
2022/01/24 09:41:45;;;;;;;19.67;5.38;;;29.40;61.10;;;;;;4999459;28;20026;-66
2022/01/24 09:44:12;;;;;;;17.17;3.78;;;29.40;60.80;;;;;;5001056;28;20030;-68
2022/01/24 09:46:40;;;;;;;22.33;5.32;;;29.50;60.70;;;;;;4999907;28;20026;-64
2022/01/24 09:49:07;;;;;;;14.95;3.83;;;29.50;60.60;;;;;;5000645;28;20014;-72
2022/01/24 09:51:34;;;;;;;26.77;5.10;;;29.50;60.80;;;;;;5001518;28;20019;-66
2022/01/24 09:54:03;;;;;;;27.15;5.35;;;29.60;61.00;;;;;;5000742;28;20037;-71
2022/01/24 09:56:30;;;;;;;31.02;4.78;;;29.60;60.90;;;;;;5000372;28;20022;-70
2022/01/24 09:58:56;;;;;;;16.80;3.70;;;29.70;60.60;;;;;;4998797;28;20644;-67
2022/01/24 10:01:23;;;;;;;12.60;4.13;;;29.70;60.20;;;;;;5003005;28;20029;-66
2022/01/24 10:04:17;;;;;;;26.42;4.03;;;29.70;60.00;;;;;;4998034;28;20050;-64
2022/01/24 10:06:59;;;;;;;27.75;4.20;;;29.70;60.00;;;;;;4995977;28;20029;-66
2022/01/24 10:09:41;;;;;;;21.05;4.25;;;29.80;60.10;;;;;;5000977;28;20026;-70
2022/01/24 10:12:29;;;;;;;15.52;3.15;;;29.80;60.40;;;;;;4998965;28;20018;-69
2022/01/24 10:17:44;;;;;;;23.52;5.55;;;29.80;61.20;;;;;;4997302;28;20081;-71
2022/01/24 10:20:26;;;;;;;18.83;4.20;;;29.90;61.20;;;;;;4998574;28;20437;-66
2022/01/24 10:23:21;;;;;;;20.35;4.40;;;29.90;61.00;;;;;;4999907;28;20018;-68
2022/01/24 10:25:51;;;;;;;16.25;3.97;;;29.90;60.70;;;;;;4994793;28;20069;-67
2022/01/24 10:28:25;;;;;;;16.60;5.35;;;30.00;60.50;;;;;;4997509;28;20037;-69
2022/01/24 10:31:01;;;;;;;;;;;30.00;60.00;;;;;;4997870;28;20022;-68
2022/01/24 10:33:30;;;;;;;23.48;4.72;;;30.00;59.70;;;;;;5001583;28;20016;-67
2022/01/24 10:36:35;;;;;;;17.25;4.80;;;30.00;59.90;;;;;;4997252;28;20374;-67
2022/01/24 10:40:08;;;;;;;16.42;3.72;;;30.10;60.50;;;;;;4995573;28;20033;-75
2022/01/24 10:43:14;;;;;;;12.75;3.63;;;30.10;59.80;;;;;;5001089;28;20448;-74
2022/01/24 10:46:24;;;;;;;15.23;4.22;;;30.20;59.40;;;;;;4991655;28;20101;-77
2022/01/24 10:49:30;;;;;;;19.20;4.68;;;30.20;59.10;;;;;;5001313;28;20034;-74
2022/01/24 10:52:36;;;;;;;15.07;3.60;;;30.20;59.30;;;;;;5002636;28;20018;-76
2022/01/24 10:55:34;;;;;;;13.27;3.47;;;30.30;59.20;;;;;;5000842;28;20562;-81
2022/01/24 10:58:55;;;;;;;13.95;4.07;;;30.30;59.10;;;;;;5002716;28;20030;-76
2022/01/24 11:02:02;;;;;;;10.93;4.20;;;30.30;59.10;;;;;;4998828;28;20488;-75
2022/01/24 11:05:08;;;;;;;11.85;3.50;;;30.30;59.30;;;;;;4997217;28;20046;-82
2022/01/24 11:07:54;;;;;;;11.13;3.75;;;30.30;59.40;;;;;;5004001;28;20029;-80
2022/01/24 11:11:03;;;;;;;16.10;3.92;;;30.30;59.30;;;;;;4998363;28;20081;-78
2022/01/24 11:14:10;;;;;;;18.23;3.78;;;30.30;59.40;;;;;;5003241;28;20038;-73
2022/01/24 11:17:23;;;;;;;21.48;3.95;;;30.40;59.30;;;;;;5001170;28;20022;-78
2022/01/24 11:20:31;;;;;;;18.75;3.45;;;30.40;59.30;;;;;;5000187;28;20022;-73
2022/01/24 11:23:40;;;;;;;10.18;3.38;;;30.40;59.40;;;;;;5001409;28;20026;-78
2022/01/24 11:26:46;;;;;;;19.83;4.10;;;30.40;59.10;;;;;;5003227;28;20137;-66
2022/01/24 11:29:52;;;;;;;16.23;3.58;;;30.40;59.00;;;;;;5005373;28;20363;-76
2022/01/24 11:33:16;;;;;;;10.75;3.08;;;30.40;59.20;;;;;;5002804;28;22410;-66
2022/01/24 11:36:25;;;;;;;29.70;4.75;;;30.40;59.20;;;;;;5002563;28;20034;-66
2022/01/24 11:39:31;;;;;;;28.17;4.70;;;30.40;59.20;;;;;;5002598;28;20057;-73
2022/01/24 11:42:39;;;;;;;25.98;4.47;;;30.50;59.30;;;;;;4999276;28;20029;-74
2022/01/24 11:46:05;;;;;;;15.73;3.67;;;30.50;59.00;;;;;;4997796;28;20044;-76
2022/01/24 11:49:26;;;;;;;13.65;4.15;;;30.50;58.60;;;;;;5000267;28;20057;-77
2022/01/24 11:52:02;;;;;;;20.13;3.67;;;30.60;58.30;;;;;;4982406;28;20422;-77
2022/01/24 11:57:28;;;;;;;14.25;3.08;;;30.60;58.20;;;;;;5000510;28;20037;-76
2022/01/24 12:00:04;;;;;;;18.38;5.10;;;30.70;58.20;;;;;;5001416;28;20041;-74
2022/01/24 12:03:10;;;;;;;15.60;3.95;;;30.60;58.10;;;;;;5000485;28;20037;-77
2022/01/24 12:06:26;;;;;;;19.02;3.92;;;30.70;58.20;;;;;;5001937;28;20037;-73
2022/01/24 12:09:32;;;;;;;13.95;3.63;;;30.70;57.90;;;;;;4996836;28;20029;-79
2022/01/24 12:12:36;;;;;;;12.07;3.03;;;30.80;58.00;;;;;;5000997;28;20030;-69
2022/01/24 12:15:38;;;;;;;14.45;3.40;;;30.80;57.80;;;;;;5000090;28;20121;-67
2022/01/24 12:18:30;;;;;;;13.45;3.20;;;30.80;57.80;;;;;;4998343;28;20490;-74
2022/01/24 12:21:05;;;;;;;17.45;4.95;;;30.90;57.70;;;;;;5003998;28;20056;-78
2022/01/24 12:24:11;;;;;;;10.10;3.42;;;30.90;57.50;;;;;;4998842;28;20033;-72
2022/01/24 12:27:23;;;;;;;14.23;2.92;;;30.90;57.20;;;;;;5000349;28;20026;-76
2022/01/24 12:30:32;;;;;;;10.88;3.10;;;31.00;57.30;;;;;;4999802;28;20034;-80
2022/01/24 12:33:56;;;;;;;18.52;3.50;;;31.00;57.20;;;;;;4999619;28;20215;-76
2022/01/24 12:36:47;;;;;;;18.00;5.38;;;30.90;57.00;;;;;;4998927;28;20018;-75
2022/01/24 12:39:20;;;;;;;15.73;3.83;;;31.00;57.00;;;;;;4998455;28;20032;-67
2022/01/24 12:42:57;;;;;;;16.10;3.72;;;31.00;56.70;;;;;;5000537;28;20038;-76
2022/01/24 12:46:19;;;;;;;11.77;4.22;;;30.90;56.60;;;;;;5000197;28;20033;-69
2022/01/24 12:49:25;;;;;;;8.35;3.15;;;31.00;56.70;;;;;;4997839;28;20477;-66
2022/01/24 12:52:32;;;;;;;14.60;2.55;;;31.00;57.20;;;;;;5002006;28;20496;-81
2022/01/24 12:55:38;;;;;;;15.98;3.78;;;31.00;56.50;;;;;;5002853;28;20523;-77
2022/01/24 12:58:59;;;;;;;10.82;3.00;;;31.00;56.50;;;;;;4998004;28;20026;-69
2022/01/24 13:01:55;;;;;;;12.25;3.45;;;31.10;56.40;;;;;;4998029;28;20034;-78
2022/01/24 13:05:01;;;;;;;25.35;4.45;;;31.10;56.40;;;;;;5003772;28;20034;-77
2022/01/24 13:08:10;;;;;;;14.85;4.45;;;31.10;56.50;;;;;;4998582;28;20561;-77
2022/01/24 13:11:16;;;;;;;12.80;3.50;;;31.10;56.30;;;;;;4999744;28;20030;-76
2022/01/24 13:14:40;;;;;;;7.38;3.33;;;31.10;56.20;;;;;;5000065;28;20095;-64
2022/01/24 13:21:18;;;;;;;11.73;3.78;;;31.20;55.90;;;;;;5003547;28;20044;-78
2022/01/24 13:24:30;;;;;;;8.73;3.85;;;31.10;55.80;;;;;;4999687;28;20021;-79
2022/01/24 13:27:36;;;;;;;14.15;3.30;;;31.10;55.70;;;;;;5001459;28;20041;-81
2022/01/24 13:30:42;;;;;;;11.43;4.07;;;31.10;55.80;;;;;;5002790;28;20022;-76
2022/01/24 13:33:52;;;;;;;15.27;3.72;;;31.10;55.60;;;;;;5001392;28;20136;-68
2022/01/24 13:36:58;;;;;;;10.80;4.30;;;31.20;55.70;;;;;;5001557;28;20025;-68
2022/01/24 13:40:04;;;;;;;12.05;3.38;;;31.10;55.50;;;;;;4997292;28;20105;-66
2022/01/24 13:43:10;;;;;;;16.45;2.70;;;31.20;55.50;;;;;;4999965;28;20477;-69
2022/01/24 13:46:19;;;;;;;23.15;5.38;;;31.20;55.50;;;;;;5000273;28;20030;-71
2022/01/24 13:49:41;;;;;;;15.63;4.05;;;31.20;55.80;;;;;;4997977;28;20058;-76
2022/01/24 13:52:50;;;;;;;13.02;2.90;;;31.20;55.90;;;;;;4996680;28;20065;-76
2022/01/24 13:55:56;;;;;;;10.93;2.67;;;31.10;55.80;;;;;;4996247;28;20077;-70
2022/01/24 13:58:57;;;;;;;13.07;3.22;;;31.10;55.80;;;;;;4994706;28;20026;-64
2022/01/24 14:02:02;;;;;;;9.98;3.03;;;31.10;55.70;;;;;;4997030;28;20923;-66
2022/01/24 14:04:52;;;;;;;12.32;3.38;;;31.00;55.80;;;;;;4998740;28;20090;-71
2022/01/24 14:08:01;;;;;;;14.73;3.00;;;31.00;55.80;;;;;;4999703;28;20025;-64
2022/01/24 14:11:07;;;;;;;13.63;3.08;;;31.00;56.00;;;;;;4996656;28;20035;-70
2022/01/24 14:14:17;;;;;;;12.73;3.58;;;31.00;56.00;;;;;;5001860;28;20029;-76
2022/01/24 14:19:14;;;;;;;9.75;2.92;;;30.90;55.80;;;;;;4996454;28;20031;-72
2022/01/24 14:21:41;;;;;;;13.05;3.20;;;30.90;56.00;;;;;;5001253;28;20033;-75
2022/01/24 14:24:07;;;;;;;22.90;4.15;;;30.90;55.90;;;;;;4986818;28;20019;-72
2022/01/24 14:26:45;;;;;;;28.27;8.32;;;30.80;56.30;;;;;;4992471;28;20014;-76
2022/01/24 14:29:15;;;;;;;62.08;13.40;;;30.80;56.60;;;;;;4989658;28;20425;-81
2022/01/24 14:31:45;;;;;;;57.75;9.40;;;30.70;56.90;;;;;;4989082;28;20022;-79
2022/01/24 14:34:17;;;;;;;64.78;11.63;;;30.80;57.00;;;;;;4991193;28;20031;-85
2022/01/24 14:36:56;;;;;;;27.30;6.43;;;30.80;57.10;;;;;;4996972;28;20048;-79
2022/01/24 14:40:02;;;;;;;58.88;9.10;;;30.80;57.30;;;;;;4988657;28;20422;-74
2022/01/24 14:46:46;;;;;;;24.38;6.43;;;30.70;58.20;;;;;;4986272;28;20098;-75
2022/01/24 14:49:25;;;;;;;16.85;3.47;;;30.70;57.70;;;;;;4981922;28;20873;-74
2022/01/24 14:52:03;;;;;;;11.45;3.88;;;30.70;57.50;;;;;;4995097;28;20042;-75
2022/01/24 14:54:41;;;;;;;12.30;4.40;;;30.60;57.40;;;;;;4990533;28;20069;-76
2022/01/24 14:57:16;;;;;;;23.02;3.75;;;30.60;57.50;;;;;;4986692;28;20046;-76
2022/01/24 14:59:51;;;;;;;10.98;3.33;;;30.50;57.60;;;;;;4996662;28;20092;-72
2022/01/24 15:02:26;;;;;;;14.98;3.97;;;30.50;57.60;;;;;;4990948;28;20033;-72
2022/01/24 15:05:16;;;;;;;7.82;3.38;;;30.40;57.50;;;;;;4998861;28;20058;-74
2022/01/24 15:08:11;;;;;;;11.68;5.75;;;30.40;57.50;;;;;;4989812;28;20034;-77
2022/01/24 15:10:49;;;;;;;16.55;6.60;;;30.40;57.60;;;;;;5007964;28;20088;-78
2022/01/24 15:13:25;;;;;;;40.53;10.13;;;30.40;57.40;;;;;;5002454;28;20046;-72
2022/01/24 15:16:13;;;;;;;30.08;8.48;;;30.40;57.70;;;;;;5000195;28;20041;-72
2022/01/24 15:25:18;;;;;;;18.08;6.15;;;30.30;57.40;;;;;;5002683;28;20113;-75
2022/01/24 15:27:46;;;;;;;17.63;6.35;;;30.30;57.60;;;;;;4999653;28;20407;-76
2022/01/24 15:30:16;;;;;;;14.65;4.80;;;30.30;58.00;;;;;;5020235;28;20481;-77
2022/01/24 15:32:48;;;;;;;8.75;3.38;;;30.30;58.10;;;;;;5002068;28;20108;-67
2022/01/24 15:35:23;;;;;;;18.63;4.07;;;30.30;58.10;;;;;;5002159;28;20048;-69
2022/01/24 15:38:30;;;;;;;14.65;3.45;;;30.30;58.30;;;;;;5001107;28;20045;-78
2022/01/24 15:40:59;;;;;;;11.60;3.40;;;30.30;58.20;;;;;;5002702;28;20025;-69
2022/01/24 15:43:52;;;;;;;12.13;3.03;;;30.30;58.00;;;;;;4992204;28;20065;-73
2022/01/24 15:49:02;;;;;;;30.60;5.22;;;30.20;57.90;;;;;;5003394;28;20045;-78
2022/01/24 15:51:32;;;;;;;32.97;5.82;;;30.10;57.90;;;;;;4999076;28;20034;-68
2022/01/24 15:54:04;;;;;;;34.05;6.07;;;30.10;58.00;;;;;;4999240;28;20033;-78
2022/01/24 15:59:02;;;;;;;18.33;3.60;;;30.10;58.10;;;;;;4996288;28;20030;-75
2022/01/24 16:01:28;;;;;;;14.27;3.20;;;30.10;58.30;;;;;;5002121;28;20524;-74
2022/01/24 16:03:55;;;;;;;15.65;3.10;;;30.10;58.30;;;;;;5004258;28;20050;-72
2022/01/24 16:06:21;;;;;;;17.67;3.65;;;30.00;58.20;;;;;;5000225;28;20108;-73
2022/01/24 16:08:48;;;;;;;12.73;4.38;;;30.00;58.30;;;;;;4997808;28;20403;-73
2022/01/24 16:11:14;;;;;;;12.63;3.30;;;30.00;58.60;;;;;;5000275;28;20022;-69
2022/01/24 16:13:41;;;;;;;14.43;3.42;;;29.90;58.60;;;;;;5000116;28;20025;-75
2022/01/24 16:16:48;;;;;;;11.38;3.25;;;29.90;58.80;;;;;;4999435;28;20033;-73
2022/01/24 16:19:56;;;;;;;10.13;3.05;;;30.00;58.70;;;;;;4987521;28;20026;-71
2022/01/24 16:23:26;;;;;;;9.43;2.88;;;29.90;58.70;;;;;;5000168;28;20129;-75
2022/01/24 16:25:51;;;;;;;17.67;3.97;;;29.90;58.70;;;;;;5001720;28;20037;-75